createdAt,value
2019-04-26T00:01:51.755Z,15.10
2019-04-26T00:04:21.054Z,15.10
2019-04-26T00:06:49.840Z,15.10
2019-04-26T00:09:38.707Z,15.10
2019-04-26T00:12:26.129Z,15.10
2019-04-26T00:15:03.112Z,15.10
2019-04-26T00:17:37.018Z,15.00
2019-04-26T00:20:07.951Z,15.10
2019-04-26T00:22:36.910Z,15.10
2019-04-26T00:25:06.912Z,15.10
2019-04-26T00:27:35.754Z,15.20
2019-04-26T00:30:05.980Z,15.20
2019-04-26T00:32:34.967Z,15.20
2019-04-26T00:35:04.249Z,15.10
2019-04-26T00:37:33.031Z,15.10
2019-04-26T00:40:01.954Z,15.20
2019-04-26T00:42:31.923Z,15.20
2019-04-26T00:45:00.855Z,15.20
2019-04-26T00:47:29.916Z,15.30
2019-04-26T00:50:00.151Z,15.30
2019-04-26T00:52:29.818Z,15.20
2019-04-26T00:54:59.339Z,15.10
2019-04-26T00:57:47.634Z,15.00
2019-04-26T01:00:18.137Z,15.10
2019-04-26T01:02:48.888Z,15.00
2019-04-26T01:05:18.819Z,14.90
2019-04-26T01:07:49.541Z,14.90
2019-04-26T01:10:19.549Z,14.90
2019-04-26T01:12:48.664Z,14.90
2019-04-26T01:15:20.092Z,14.90
2019-04-26T01:17:47.969Z,14.90
2019-04-26T01:20:18.913Z,14.90
2019-04-26T01:22:51.075Z,14.80
2019-04-26T01:25:44.038Z,14.80
2019-04-26T01:28:17.096Z,14.80
2019-04-26T01:30:46.634Z,14.80
2019-04-26T01:33:15.722Z,14.70
2019-04-26T01:35:44.617Z,14.80
2019-04-26T01:38:15.862Z,14.80
2019-04-26T01:40:46.375Z,14.80
2019-04-26T01:43:33.484Z,14.70
2019-04-26T01:46:08.897Z,14.70
2019-04-26T01:48:52.384Z,14.80
2019-04-26T01:51:41.932Z,14.90
2019-04-26T01:54:13.718Z,14.70
2019-04-26T01:56:42.611Z,14.60
2019-04-26T01:59:14.367Z,14.40
2019-04-26T02:01:45.511Z,14.30
2019-04-26T02:04:14.811Z,14.20
2019-04-26T02:06:43.803Z,14.10
2019-04-26T02:09:13.249Z,14.20
2019-04-26T02:11:42.325Z,14.00
2019-04-26T02:14:11.499Z,13.90
2019-04-26T02:16:41.005Z,13.90
2019-04-26T02:19:09.997Z,14.10
2019-04-26T02:21:46.772Z,14.20
2019-04-26T02:24:17.305Z,14.30
2019-04-26T02:26:47.499Z,14.20
2019-04-26T02:29:27.024Z,14.20
2019-04-26T02:31:58.803Z,14.30
2019-04-26T02:34:31.065Z,14.20
2019-04-26T02:37:02.447Z,14.30
2019-04-26T02:39:35.407Z,14.20
2019-04-26T02:42:07.678Z,14.10
2019-04-26T02:44:41.280Z,14.00
2019-04-26T02:47:39.268Z,14.00
2019-04-26T02:50:28.574Z,13.80
2019-04-26T02:53:21.593Z,13.80
2019-04-26T02:56:07.897Z,13.70
2019-04-26T02:58:57.881Z,13.60
2019-04-26T03:01:31.255Z,13.50
2019-04-26T03:03:59.870Z,13.50
2019-04-26T03:06:32.780Z,13.50
2019-04-26T03:09:07.092Z,13.40
2019-04-26T03:12:03.092Z,13.40
2019-04-26T03:14:41.987Z,13.30
2019-04-26T03:17:13.674Z,13.30
2019-04-26T03:19:55.874Z,13.30
2019-04-26T03:22:37.330Z,13.40
2019-04-26T03:25:35.200Z,13.50
2019-04-26T03:28:16.003Z,13.60
2019-04-26T03:31:20.940Z,13.70
2019-04-26T03:34:04.909Z,13.70
2019-04-26T03:37:26.722Z,13.70
2019-04-26T03:40:11.782Z,13.90
2019-04-26T03:43:06.063Z,13.90
2019-04-26T03:45:58.929Z,14.00
2019-04-26T03:48:28.525Z,14.10
2019-04-26T03:51:21.482Z,14.40
2019-04-26T03:53:53.330Z,14.60
2019-04-26T03:56:27.534Z,14.90
2019-04-26T03:59:01.056Z,14.90
2019-04-26T04:01:38.790Z,15.30
2019-04-26T04:04:26.978Z,15.50
2019-04-26T04:07:04.354Z,15.70
2019-04-26T04:09:29.838Z,15.80
2019-04-26T04:12:19.818Z,16.40
2019-04-26T04:15:03.501Z,16.60
2019-04-26T04:17:37.337Z,16.60
2019-04-26T04:20:20.554Z,16.70
2019-04-26T04:23:20.880Z,16.40
2019-04-26T04:25:52.333Z,16.20
2019-04-26T04:28:56.348Z,16.30
2019-04-26T04:31:55.764Z,16.30
2019-04-26T04:34:30.046Z,16.50
2019-04-26T04:37:01.829Z,16.90
2019-04-26T04:39:59.597Z,17.30
2019-04-26T04:42:43.397Z,17.30
2019-04-26T04:45:45.501Z,17.60
2019-04-26T04:48:18.500Z,17.30
2019-04-26T04:51:12.983Z,16.90
2019-04-26T04:53:59.180Z,16.80
2019-04-26T04:56:47.863Z,16.70
2019-04-26T04:59:23.683Z,16.20
2019-04-26T05:02:11.626Z,16.20
2019-04-26T05:04:45.252Z,16.00
2019-04-26T05:07:27.426Z,15.90
2019-04-26T05:10:18.640Z,16.00
2019-04-26T05:12:56.021Z,16.20
2019-04-26T05:15:29.529Z,15.90
2019-04-26T05:18:18.082Z,16.10
2019-04-26T05:21:06.429Z,16.10
2019-04-26T05:24:14.538Z,17.20
2019-04-26T05:27:08.016Z,17.90
2019-04-26T05:29:54.060Z,19.00
2019-04-26T05:32:40.500Z,19.60
2019-04-26T05:35:42.265Z,20.30
2019-04-26T05:38:40.133Z,20.10
2019-04-26T05:41:49.531Z,20.80
2019-04-26T05:44:41.098Z,21.10
2019-04-26T18:30:11.505Z,18.20
2019-04-26T18:32:42.140Z,17.90
2019-04-26T18:35:09.135Z,17.90
2019-04-26T18:37:39.523Z,17.90
2019-04-26T18:40:08.516Z,18.00
2019-04-26T18:42:41.464Z,18.20
2019-04-26T18:45:29.787Z,18.30
2019-04-26T18:48:01.125Z,18.40
2019-04-26T18:50:28.469Z,18.40
2019-04-26T18:53:15.567Z,18.40
2019-04-26T18:55:49.069Z,18.40
2019-04-26T18:58:18.065Z,18.40
2019-04-26T19:00:47.058Z,18.40
2019-04-26T19:03:16.194Z,18.30
2019-04-26T19:05:45.348Z,18.20
2019-04-26T19:08:14.927Z,18.20
2019-04-26T19:10:44.147Z,18.00
2019-04-26T19:13:36.581Z,18.00
2019-04-26T19:16:05.482Z,17.80
2019-04-26T19:18:37.970Z,17.60
2019-04-26T19:21:15.992Z,17.60
2019-04-26T19:23:44.749Z,17.60
2019-04-26T19:26:14.063Z,17.40
2019-04-26T19:28:45.045Z,17.20
2019-04-26T19:31:13.990Z,17.30
2019-04-26T19:33:47.608Z,17.40
2019-04-26T19:36:17.776Z,17.20
2019-04-26T19:38:49.996Z,17.30
2019-04-26T19:41:17.388Z,17.30
2019-04-26T19:43:47.248Z,17.30
2019-04-26T19:46:25.366Z,17.40
2019-04-26T19:49:07.978Z,17.50
2019-04-26T19:51:41.468Z,17.60
2019-04-26T19:54:35.713Z,17.60
2019-04-26T19:57:04.014Z,17.50
2019-04-26T19:59:34.306Z,17.40
2019-04-26T20:02:06.115Z,17.40
2019-04-26T20:04:35.107Z,17.30
2019-04-26T20:07:04.195Z,17.30
2019-04-26T20:09:33.091Z,17.30
2019-04-26T20:12:02.490Z,17.40
2019-04-26T20:14:44.633Z,17.40
2019-04-26T20:17:02.318Z,17.40
2019-04-26T20:19:36.462Z,17.30
2019-04-26T20:22:03.490Z,17.30
2019-04-26T20:24:32.377Z,17.20
2019-04-26T20:27:03.143Z,17.30
2019-04-26T20:29:32.255Z,17.30
2019-04-26T20:32:08.876Z,17.20
2019-04-26T20:34:37.765Z,17.10
2019-04-26T20:37:09.131Z,16.90
2019-04-26T20:39:37.706Z,16.80
2019-04-26T20:42:06.589Z,16.80
2019-04-26T20:44:50.367Z,16.80
2019-04-26T20:47:07.583Z,16.70
2019-04-26T20:49:47.436Z,16.60
2019-04-26T20:52:07.477Z,16.50
2019-04-26T20:54:36.469Z,16.50
2019-04-26T20:57:07.722Z,16.40
2019-04-26T21:00:01.409Z,16.40
2019-04-26T21:02:26.490Z,16.30
2019-04-26T21:04:55.483Z,16.30
2019-04-26T21:07:24.576Z,16.30
2019-04-26T21:09:53.472Z,16.20
2019-04-26T21:12:22.462Z,16.10
2019-04-26T21:14:51.743Z,16.20
2019-04-26T21:17:26.393Z,16.10
2019-04-26T21:19:55.007Z,16.10
2019-04-26T21:22:28.471Z,16.10
2019-04-26T21:24:58.395Z,16.10
2019-04-26T21:27:29.812Z,16.00
2019-04-26T21:30:05.073Z,16.00
2019-04-26T21:32:55.327Z,16.00
2019-04-26T21:35:25.026Z,16.00
2019-04-26T21:37:56.561Z,16.00
2019-04-26T21:40:28.156Z,16.00
2019-04-26T21:42:59.446Z,15.90
2019-04-26T21:45:30.701Z,15.90
2019-04-26T21:47:58.136Z,15.90
2019-04-26T21:50:29.206Z,15.90
2019-04-26T21:52:58.580Z,15.80
2019-04-26T21:55:35.337Z,15.70
2019-04-26T21:57:58.713Z,15.60
2019-04-26T22:00:29.441Z,15.50
2019-04-26T22:02:58.436Z,15.50
2019-04-26T22:05:27.330Z,15.50
2019-04-26T22:07:56.116Z,15.40
2019-04-26T22:10:39.623Z,15.40
2019-04-26T22:13:08.029Z,15.40
2019-04-26T22:15:56.379Z,15.30
2019-04-26T22:18:26.908Z,15.20
2019-04-26T22:20:57.438Z,15.20
2019-04-26T22:23:30.323Z,15.20
2019-04-26T22:26:00.149Z,15.20
2019-04-26T22:28:31.343Z,15.20
2019-04-26T22:31:06.966Z,15.10
2019-04-26T22:33:32.648Z,15.00
2019-04-26T22:36:03.774Z,15.00
2019-04-26T22:38:33.972Z,14.90
2019-04-26T22:41:03.158Z,14.80
2019-04-26T22:43:39.880Z,14.80
2019-04-26T22:46:14.096Z,14.70
2019-04-26T22:48:44.626Z,14.70
2019-04-26T22:51:14.007Z,14.80
2019-04-26T22:53:43.418Z,14.90
2019-04-26T22:56:13.359Z,14.90
2019-04-26T22:58:44.112Z,14.80
2019-04-26T23:01:13.255Z,14.70
2019-04-26T23:03:46.277Z,14.70
2019-04-26T23:06:13.591Z,14.70
2019-04-26T23:08:43.839Z,14.70
2019-04-26T23:11:13.407Z,14.70
2019-04-26T23:14:00.678Z,14.70
2019-04-26T23:17:01.447Z,14.60
2019-04-26T23:19:25.015Z,14.50
2019-04-26T23:21:56.206Z,14.50
2019-04-26T23:24:25.213Z,14.40
2019-04-26T23:26:54.225Z,14.30
2019-04-26T23:29:23.194Z,14.20
2019-04-26T23:31:53.440Z,14.20
2019-04-26T23:34:22.799Z,14.20
2019-04-26T23:36:54.046Z,14.10
2019-04-26T23:39:24.651Z,14.10
2019-04-26T23:41:54.091Z,13.90
2019-04-26T23:44:23.339Z,13.80
2019-04-26T23:46:56.638Z,13.70
2019-04-26T23:49:23.315Z,13.60
2019-04-26T23:51:53.431Z,13.50
2019-04-26T23:54:23.873Z,13.40
2019-04-26T23:56:55.743Z,13.20
2019-04-26T23:59:24.769Z,13.10
